createdAt,value
2018-06-03T00:00:15.965Z,4.47
2018-06-03T00:02:19.557Z,4.20
2018-06-03T00:04:23.267Z,3.83
2018-06-03T00:06:26.776Z,4.07
2018-06-03T00:08:30.347Z,4.30
2018-06-03T00:10:33.849Z,4.20
2018-06-03T00:12:37.035Z,4.37
2018-06-03T00:14:40.544Z,4.07
2018-06-03T00:16:44.036Z,4.63
2018-06-03T00:18:47.576Z,4.83
2018-06-03T00:21:03.948Z,5.00
2018-06-03T00:23:07.537Z,4.47
2018-06-03T00:25:11.032Z,4.27
2018-06-03T00:27:14.557Z,3.70
2018-06-03T00:29:18.066Z,3.73
2018-06-03T00:31:21.605Z,4.10
2018-06-03T00:33:25.115Z,4.13
2018-06-03T00:35:28.804Z,4.57
2018-06-03T00:37:32.268Z,4.80
2018-06-03T00:39:35.764Z,4.47
2018-06-03T00:41:39.247Z,4.50
2018-06-03T00:43:42.740Z,4.40
2018-06-03T00:45:46.356Z,3.97
2018-06-03T00:47:49.895Z,4.67
2018-06-03T00:49:53.471Z,3.80
2018-06-03T00:51:56.645Z,4.10
2018-06-03T00:54:00.144Z,4.43
2018-06-03T00:56:03.674Z,4.10
2018-06-03T00:58:07.148Z,4.03
2018-06-03T01:00:10.680Z,4.37
2018-06-03T01:02:14.176Z,5.17
2018-06-03T01:04:17.681Z,4.73
2018-06-03T01:06:21.219Z,4.90
2018-06-03T01:08:24.708Z,4.63
2018-06-03T01:10:28.299Z,4.90
2018-06-03T01:12:31.807Z,4.47
2018-06-03T01:14:35.343Z,5.10
2018-06-03T01:16:38.943Z,4.60
2018-06-03T01:18:42.401Z,4.70
2018-06-03T01:20:45.899Z,4.80
2018-06-03T01:22:49.421Z,4.97
2018-06-03T01:24:52.918Z,4.73
2018-06-03T01:26:56.417Z,4.50
2018-06-03T01:29:00.019Z,5.00
2018-06-03T01:31:03.568Z,4.70
2018-06-03T01:33:07.096Z,5.03
2018-06-03T01:35:10.617Z,5.37
2018-06-03T01:37:14.083Z,4.53
2018-06-03T01:39:17.680Z,4.60
2018-06-03T01:41:21.286Z,5.17
2018-06-03T01:43:24.795Z,5.33
2018-06-03T01:45:28.315Z,5.20
2018-06-03T01:47:31.836Z,5.00
2018-06-03T01:49:35.315Z,5.50
2018-06-03T01:51:38.863Z,5.63
2018-06-03T01:53:42.459Z,5.10
2018-06-03T01:55:45.980Z,4.90
2018-06-03T01:57:49.545Z,5.37
2018-06-03T01:59:53.033Z,5.10
2018-06-03T02:01:56.523Z,5.73
2018-06-03T02:04:00.049Z,5.70
2018-06-03T02:06:03.580Z,5.77
2018-06-03T02:08:07.244Z,5.47
2018-06-03T02:10:10.791Z,4.93
2018-06-03T02:12:14.380Z,5.20
2018-06-03T02:14:17.936Z,5.70
2018-06-03T02:16:21.413Z,5.43
2018-06-03T02:18:24.909Z,6.20
2018-06-03T02:20:28.415Z,5.83
2018-06-03T02:22:31.979Z,5.30
2018-06-03T02:24:35.534Z,5.43
2018-06-03T02:26:39.052Z,5.53
2018-06-03T02:28:42.516Z,5.33
2018-06-03T02:30:46.147Z,5.73
2018-06-03T02:32:49.647Z,5.23
2018-06-03T02:34:53.232Z,5.20
2018-06-03T02:36:56.849Z,4.90
2018-06-03T02:39:00.341Z,4.63
2018-06-03T02:41:03.889Z,4.67
2018-06-03T02:43:07.428Z,5.07
2018-06-03T02:45:11.055Z,5.87
2018-06-03T02:47:14.586Z,5.50
2018-06-03T02:49:18.060Z,5.30
2018-06-03T02:51:21.553Z,5.67
2018-06-03T02:53:25.083Z,5.67
2018-06-03T02:55:28.557Z,5.50
2018-06-03T02:57:32.157Z,5.20
2018-06-03T02:59:35.637Z,5.60
2018-06-03T03:01:39.270Z,5.23
2018-06-03T03:03:42.790Z,5.63
2018-06-03T03:05:46.260Z,5.50
2018-06-03T03:07:49.863Z,5.60
2018-06-03T03:09:53.367Z,5.63
2018-06-03T03:11:56.867Z,5.30
2018-06-03T03:14:00.465Z,5.23
2018-06-03T03:16:03.949Z,6.27
2018-06-03T03:18:07.505Z,5.77
2018-06-03T03:20:11.013Z,5.40
2018-06-03T03:22:14.505Z,5.70
2018-06-03T03:24:17.991Z,6.47
2018-06-03T03:26:21.548Z,5.47
2018-06-03T03:28:25.380Z,5.40
2018-06-03T03:30:28.859Z,6.03
2018-06-03T03:32:32.384Z,5.40
2018-06-03T03:34:36.004Z,6.07
2018-06-03T03:36:39.473Z,5.63
2018-06-03T03:38:42.965Z,5.63
2018-06-03T03:40:46.440Z,5.67
2018-06-03T03:42:49.970Z,5.57
2018-06-03T03:44:53.471Z,5.80
2018-06-03T03:46:56.962Z,4.97
2018-06-03T03:49:00.469Z,5.33
2018-06-03T03:51:03.998Z,5.30
2018-06-03T03:53:07.583Z,4.77
2018-06-03T03:55:11.114Z,5.13
2018-06-03T03:57:14.715Z,5.50
2018-06-03T03:59:17.847Z,5.30
2018-06-03T04:01:21.437Z,5.20
2018-06-03T04:03:24.903Z,5.23
2018-06-03T04:05:28.843Z,5.33
2018-06-03T04:07:32.425Z,5.10
2018-06-03T04:09:35.938Z,5.63
2018-06-03T04:11:39.427Z,5.00
2018-06-03T04:13:42.908Z,5.50
2018-06-03T04:15:46.447Z,5.77
2018-06-03T04:17:49.953Z,5.30
2018-06-03T04:19:53.427Z,5.50
2018-06-03T04:21:56.915Z,5.80
2018-06-03T04:24:00.452Z,6.10
2018-06-03T04:26:03.946Z,6.27
2018-06-03T04:28:07.456Z,5.40
2018-06-03T04:30:10.949Z,5.90
2018-06-03T04:32:14.431Z,5.93
2018-06-03T04:34:17.917Z,5.73
2018-06-03T04:36:21.399Z,5.97
2018-06-03T04:38:24.894Z,6.07
2018-06-03T04:40:28.405Z,6.17
2018-06-03T04:42:31.895Z,6.37
2018-06-03T04:44:35.347Z,5.60
2018-06-03T04:46:38.980Z,5.70
2018-06-03T04:48:42.574Z,5.40
2018-06-03T04:50:46.084Z,5.90
2018-06-03T04:52:49.725Z,5.40
2018-06-03T04:54:53.225Z,5.53
2018-06-03T04:56:56.808Z,6.20
2018-06-03T04:59:00.387Z,5.53
2018-06-03T05:01:03.646Z,5.73
2018-06-03T05:03:07.328Z,5.27
2018-06-03T05:05:10.856Z,5.97
2018-06-03T05:07:14.376Z,5.00
2018-06-03T05:09:17.884Z,5.47
2018-06-03T05:11:21.378Z,4.90
2018-06-03T05:13:24.983Z,5.77
2018-06-03T05:15:28.516Z,5.57
2018-06-03T05:17:32.003Z,5.50
2018-06-03T05:19:35.607Z,5.07
2018-06-03T05:21:39.052Z,5.17
2018-06-03T05:23:42.565Z,5.20
2018-06-03T05:25:46.147Z,5.13
2018-06-03T05:27:49.719Z,5.03
2018-06-03T05:29:53.222Z,5.10
2018-06-03T05:31:56.699Z,5.10
2018-06-03T05:34:00.356Z,5.53
2018-06-03T05:36:03.852Z,5.70
2018-06-03T05:38:07.334Z,5.70
2018-06-03T05:40:10.819Z,5.57
2018-06-03T05:42:14.485Z,5.17
2018-06-03T05:44:17.996Z,5.30
2018-06-03T05:46:21.487Z,5.17
2018-06-03T05:48:24.794Z,5.37
2018-06-03T05:50:28.599Z,5.40
2018-06-03T05:52:32.162Z,5.90
2018-06-03T05:54:35.649Z,5.43
2018-06-03T05:56:39.118Z,5.47
2018-06-03T05:58:42.614Z,5.50
2018-06-03T06:00:46.114Z,5.87
2018-06-03T06:02:49.620Z,5.90
2018-06-03T06:04:53.099Z,5.40
2018-06-03T06:06:56.590Z,5.83
2018-06-03T06:09:00.303Z,5.57
2018-06-03T06:11:03.792Z,5.00
2018-06-03T06:13:07.316Z,5.50
2018-06-03T06:15:10.855Z,6.10
2018-06-03T06:17:14.696Z,5.43
2018-06-03T06:19:18.193Z,5.27
2018-06-03T06:21:21.792Z,5.80
2018-06-03T06:23:25.284Z,5.67
2018-06-03T06:25:28.862Z,5.63
2018-06-03T06:27:32.380Z,5.03
2018-06-03T06:29:35.892Z,6.50
2018-06-03T06:31:39.398Z,5.40
2018-06-03T06:33:43.023Z,5.07
2018-06-03T06:35:46.624Z,4.87
2018-06-03T06:37:50.124Z,4.80
2018-06-03T06:39:53.647Z,5.17
2018-06-03T06:41:57.320Z,5.30
2018-06-03T06:44:00.828Z,4.43
2018-06-03T06:46:04.367Z,4.90
2018-06-03T06:48:07.863Z,4.70
2018-06-03T06:50:11.349Z,4.90
2018-06-03T06:52:14.904Z,4.50
2018-06-03T06:54:18.463Z,4.57
2018-06-03T06:56:21.939Z,4.60
2018-06-03T06:58:25.448Z,4.60
2018-06-03T07:00:28.970Z,4.83
2018-06-03T07:02:32.577Z,4.40
2018-06-03T07:04:36.100Z,4.43
2018-06-03T07:06:39.678Z,4.30
2018-06-03T07:08:43.191Z,3.83
2018-06-03T07:10:46.731Z,4.37
2018-06-03T07:12:50.274Z,4.23
2018-06-03T07:14:53.823Z,4.10
2018-06-03T07:16:57.391Z,3.57
2018-06-03T07:19:00.940Z,4.27
2018-06-03T07:21:04.447Z,4.10
2018-06-03T07:23:07.979Z,4.57
2018-06-03T07:25:11.497Z,4.30
2018-06-03T07:27:14.987Z,4.93
2018-06-03T07:29:18.500Z,4.03
2018-06-03T07:31:22.000Z,4.70
2018-06-03T07:33:25.164Z,4.43
2018-06-03T07:35:29.072Z,4.73
2018-06-03T07:37:36.331Z,4.47
2018-06-03T07:39:39.872Z,4.90
2018-06-03T07:41:43.150Z,4.60
2018-06-03T07:43:46.644Z,4.37
2018-06-03T07:45:50.164Z,4.30
2018-06-03T07:47:53.292Z,4.53
2018-06-03T07:49:56.818Z,4.10
2018-06-03T07:52:00.378Z,4.80
2018-06-03T07:54:07.137Z,4.40
2018-06-03T07:56:10.721Z,4.47
2018-06-03T07:58:14.201Z,3.90
2018-06-03T08:00:21.857Z,3.90
2018-06-03T08:02:25.420Z,3.63
2018-06-03T08:04:28.952Z,3.80
2018-06-03T08:06:32.476Z,4.20
2018-06-03T08:08:36.402Z,3.70
2018-06-03T08:10:39.916Z,3.90
2018-06-03T08:12:43.430Z,3.93
2018-06-03T08:14:47.138Z,3.70
2018-06-03T08:16:50.660Z,3.60
2018-06-03T08:18:54.268Z,3.70
2018-06-03T08:20:57.739Z,4.00
2018-06-03T08:23:01.263Z,3.67
2018-06-03T08:25:04.452Z,4.40
2018-06-03T08:27:07.893Z,4.50
2018-06-03T08:29:11.490Z,4.30
2018-06-03T08:31:15.058Z,3.80
2018-06-03T08:33:18.607Z,4.57
2018-06-03T08:35:22.117Z,4.23
2018-06-03T08:37:25.612Z,4.07
2018-06-03T08:39:29.124Z,4.70
2018-06-03T08:41:32.991Z,4.00
2018-06-03T08:43:36.683Z,4.30
2018-06-03T08:45:42.336Z,4.00
2018-06-03T08:47:47.959Z,4.10
2018-06-03T08:49:51.760Z,4.23
2018-06-03T08:51:57.972Z,3.90
2018-06-03T08:54:01.538Z,3.47
2018-06-03T08:56:05.117Z,3.53
2018-06-03T08:58:08.597Z,4.77
2018-06-03T09:00:12.114Z,4.07
2018-06-03T09:02:15.630Z,4.07
2018-06-03T09:04:19.192Z,3.87
2018-06-03T09:06:22.675Z,3.63
2018-06-03T09:08:26.171Z,3.80
2018-06-03T09:10:29.737Z,3.37
2018-06-03T09:12:33.304Z,4.00
2018-06-03T09:14:36.813Z,3.67
2018-06-03T09:16:40.395Z,3.40
2018-06-03T09:18:43.885Z,3.70
2018-06-03T09:20:47.376Z,3.60
2018-06-03T09:22:50.899Z,4.33
2018-06-03T09:24:54.487Z,3.77
2018-06-03T09:26:58.003Z,3.43
2018-06-03T09:29:01.603Z,5.53
2018-06-03T09:31:07.310Z,5.60
2018-06-03T09:33:10.835Z,3.50
2018-06-03T09:35:14.411Z,3.47
2018-06-03T09:37:18.055Z,3.58
2018-06-03T09:39:21.608Z,3.93
2018-06-03T09:41:25.091Z,3.47
2018-06-03T09:43:28.651Z,14.40
2018-06-03T09:45:32.168Z,5.57
2018-06-03T09:47:35.715Z,3.70
2018-06-03T09:49:39.228Z,4.53
2018-06-03T09:51:42.841Z,5.23
2018-06-03T09:53:46.313Z,4.00
2018-06-03T09:55:49.851Z,3.70
2018-06-03T09:57:53.322Z,3.70
2018-06-03T09:59:56.848Z,3.00
2018-06-03T10:02:00.355Z,3.07
2018-06-03T10:04:03.882Z,3.00
2018-06-03T10:06:07.155Z,2.83
2018-06-03T10:08:10.650Z,2.87
2018-06-03T10:10:14.318Z,3.30
2018-06-03T10:12:17.847Z,3.50
2018-06-03T10:14:21.348Z,3.60
2018-06-03T10:16:24.916Z,3.77
2018-06-03T10:18:28.460Z,3.57
2018-06-03T10:20:32.077Z,3.50
2018-06-03T10:22:35.557Z,3.43
2018-06-03T10:24:38.931Z,3.37
2018-06-03T10:26:42.448Z,2.87
2018-06-03T10:28:45.975Z,2.98
2018-06-03T10:30:49.472Z,2.80
2018-06-03T10:32:52.991Z,2.60
2018-06-03T10:34:56.491Z,2.85
2018-06-03T10:36:59.988Z,3.07
2018-06-03T10:39:03.729Z,2.73
2018-06-03T10:41:08.045Z,2.57
2018-06-03T10:43:11.549Z,2.45
2018-06-03T10:45:15.200Z,2.62
2018-06-03T10:47:18.687Z,2.20
2018-06-03T10:49:22.188Z,2.33
2018-06-03T10:51:25.742Z,2.70
2018-06-03T10:53:29.307Z,2.27
2018-06-03T10:55:32.848Z,2.20
2018-06-03T10:57:36.437Z,2.02
2018-06-03T10:59:39.936Z,2.27
2018-06-03T11:01:43.457Z,2.30
2018-06-03T11:03:46.930Z,2.50
2018-06-03T11:05:50.553Z,2.42
2018-06-03T11:07:54.088Z,2.62
2018-06-03T11:09:57.596Z,2.20
2018-06-03T11:12:01.115Z,2.25
2018-06-03T11:14:04.660Z,2.20
2018-06-03T11:16:08.221Z,2.40
2018-06-03T11:18:11.743Z,2.27
2018-06-03T11:20:15.787Z,2.40
2018-06-03T11:22:19.428Z,2.12
2018-06-03T11:24:22.912Z,2.47
2018-06-03T11:26:26.450Z,2.40
2018-06-03T11:28:29.982Z,2.15
2018-06-03T11:30:33.515Z,2.00
2018-06-03T11:32:37.024Z,2.12
2018-06-03T11:34:40.578Z,2.20
2018-06-03T11:36:44.099Z,2.50
2018-06-03T11:38:47.615Z,1.98
2018-06-03T11:40:51.192Z,2.35
2018-06-03T11:42:54.723Z,2.50
2018-06-03T11:44:58.213Z,2.10
2018-06-03T11:47:01.717Z,2.12
2018-06-03T11:49:05.273Z,1.92
2018-06-03T11:51:08.856Z,2.08
2018-06-03T11:53:12.454Z,2.00
2018-06-03T11:55:16.056Z,2.30
2018-06-03T11:57:19.651Z,2.10
2018-06-03T11:59:34.273Z,2.12
2018-06-03T12:01:37.818Z,2.40
2018-06-03T12:03:41.356Z,2.08
2018-06-03T12:05:44.908Z,2.22
2018-06-03T12:07:48.404Z,1.62
2018-06-03T12:09:52.009Z,2.08
2018-06-03T12:11:55.515Z,2.30
2018-06-03T12:13:58.995Z,2.02
2018-06-03T12:16:02.533Z,1.80
2018-06-03T12:18:06.051Z,2.00
2018-06-03T12:20:09.564Z,2.30
2018-06-03T12:22:13.118Z,2.20
2018-06-03T12:24:16.278Z,2.33
2018-06-03T12:26:19.925Z,1.82
2018-06-03T12:28:23.484Z,1.92
2018-06-03T12:30:27.001Z,1.75
2018-06-03T12:32:30.596Z,1.90
2018-06-03T12:34:34.124Z,2.35
2018-06-03T12:36:37.652Z,1.98
2018-06-03T12:38:41.187Z,2.17
2018-06-03T12:40:44.676Z,2.15
2018-06-03T12:42:48.237Z,2.08
2018-06-03T12:44:51.790Z,1.70
2018-06-03T12:46:55.305Z,2.42
2018-06-03T12:48:58.844Z,1.90
2018-06-03T12:51:02.359Z,2.30
2018-06-03T12:53:06.153Z,2.35
2018-06-03T12:55:09.711Z,2.15
2018-06-03T12:57:13.239Z,2.30
2018-06-03T12:59:16.771Z,2.02
2018-06-03T13:01:20.291Z,1.72
2018-06-03T13:03:23.955Z,2.08
2018-06-03T13:05:27.474Z,2.10
2018-06-03T13:07:30.998Z,2.20
2018-06-03T13:09:34.495Z,1.95
2018-06-03T13:11:38.039Z,2.05
2018-06-03T13:13:41.677Z,2.12
2018-06-03T13:15:45.202Z,2.17
2018-06-03T13:17:48.774Z,2.10
2018-06-03T13:19:52.268Z,2.10
2018-06-03T13:21:55.844Z,1.90
2018-06-03T13:23:59.337Z,2.05
2018-06-03T13:26:02.863Z,2.22
2018-06-03T13:28:06.369Z,1.80
2018-06-03T13:30:09.864Z,2.00
2018-06-03T13:32:13.387Z,2.10
2018-06-03T13:34:16.525Z,2.12
2018-06-03T13:36:20.033Z,2.20
2018-06-03T13:38:23.569Z,2.33
2018-06-03T13:40:27.132Z,1.92
2018-06-03T13:42:30.664Z,2.20
2018-06-03T13:44:34.220Z,2.00
2018-06-03T13:46:37.767Z,2.12
2018-06-03T13:48:41.259Z,1.98
2018-06-03T13:50:44.774Z,2.02
2018-06-03T13:52:48.380Z,2.20
2018-06-03T13:54:51.861Z,2.10
2018-06-03T13:56:55.437Z,2.40
2018-06-03T13:58:58.972Z,1.82
2018-06-03T14:01:02.586Z,2.10
2018-06-03T14:03:06.089Z,1.90
2018-06-03T14:05:09.592Z,1.82
2018-06-03T14:07:13.193Z,2.20
2018-06-03T14:09:16.812Z,2.33
2018-06-03T14:11:20.303Z,1.87
2018-06-03T14:13:23.800Z,1.90
2018-06-03T14:15:27.304Z,2.00
2018-06-03T14:17:30.835Z,1.82
2018-06-03T14:19:34.356Z,2.27
2018-06-03T14:21:37.855Z,1.98
2018-06-03T14:23:41.356Z,2.10
2018-06-03T14:25:44.863Z,2.22
2018-06-03T14:27:48.195Z,2.20
2018-06-03T14:29:51.954Z,1.80
2018-06-03T14:31:55.432Z,1.72
2018-06-03T14:33:58.963Z,2.00
2018-06-03T14:36:02.460Z,2.00
2018-06-03T14:38:05.976Z,1.72
2018-06-03T14:40:09.552Z,2.30
2018-06-03T14:42:13.074Z,2.17
2018-06-03T14:44:16.574Z,2.10
2018-06-03T14:46:20.136Z,2.47
2018-06-03T14:48:23.699Z,2.30
2018-06-03T14:50:27.244Z,2.20
2018-06-03T14:52:30.747Z,1.87
2018-06-03T14:54:34.248Z,2.22
2018-06-03T14:56:37.898Z,1.70
2018-06-03T14:58:41.395Z,2.20
2018-06-03T15:00:44.891Z,2.15
2018-06-03T15:02:48.375Z,1.87
2018-06-03T15:04:51.884Z,2.02
2018-06-03T15:06:55.394Z,1.90
2018-06-03T15:08:59.210Z,2.10
2018-06-03T15:11:02.722Z,2.00
2018-06-03T15:13:06.324Z,2.20
2018-06-03T15:15:09.804Z,2.08
2018-06-03T15:17:13.353Z,2.00
2018-06-03T15:19:17.039Z,2.08
2018-06-03T15:21:20.231Z,1.92
2018-06-03T15:23:23.458Z,2.22
2018-06-03T15:25:27.049Z,2.75
2018-06-03T15:27:30.577Z,2.12
2018-06-03T15:29:34.116Z,2.37
2018-06-03T15:31:37.628Z,2.17
2018-06-03T15:33:41.246Z,2.10
2018-06-03T15:35:45.415Z,2.00
2018-06-03T15:37:49.020Z,2.35
2018-06-03T15:39:52.530Z,3.75
2018-06-03T15:42:01.176Z,2.25
2018-06-03T15:44:04.392Z,2.17
2018-06-03T15:46:07.914Z,2.20
2018-06-03T15:48:11.461Z,2.12
2018-06-03T15:50:14.968Z,2.27
2018-06-03T15:52:18.478Z,2.17
2018-06-03T15:54:22.111Z,1.80
2018-06-03T15:56:25.648Z,1.98
2018-06-03T15:58:29.166Z,1.98
2018-06-03T16:00:32.672Z,2.33
2018-06-03T16:02:36.166Z,2.40
2018-06-03T16:04:39.837Z,2.10
2018-06-03T16:06:43.405Z,2.50
2018-06-03T16:08:46.945Z,2.55
2018-06-03T16:10:50.459Z,2.20
2018-06-03T16:12:54.051Z,2.08
2018-06-03T16:14:57.570Z,2.00
2018-06-03T16:17:01.110Z,1.92
2018-06-03T16:19:04.827Z,2.00
2018-06-03T16:21:08.485Z,2.20
2018-06-03T16:23:11.982Z,2.00
2018-06-03T16:25:15.487Z,2.27
2018-06-03T16:27:19.041Z,1.90
2018-06-03T16:29:22.618Z,2.00
2018-06-03T16:31:26.173Z,2.00
2018-06-03T16:33:29.733Z,1.90
2018-06-03T16:35:33.257Z,1.80
2018-06-03T16:37:37.007Z,1.92
2018-06-03T16:39:40.517Z,1.67
2018-06-03T16:41:44.173Z,2.00
2018-06-03T16:43:47.752Z,1.85
2018-06-03T16:45:51.243Z,2.35
2018-06-03T16:47:54.723Z,2.40
2018-06-03T16:49:58.244Z,2.20
2018-06-03T16:52:01.982Z,3.45
2018-06-03T16:54:08.790Z,2.55
2018-06-03T16:56:12.299Z,2.33
2018-06-03T16:58:15.838Z,1.87
2018-06-03T17:00:19.356Z,2.15
2018-06-03T17:02:22.896Z,3.47
2018-06-03T17:04:26.072Z,2.20
2018-06-03T17:06:32.049Z,2.40
2018-06-03T17:08:35.576Z,2.30
2018-06-03T17:10:39.204Z,1.87
2018-06-03T17:12:42.741Z,3.95
2018-06-03T17:14:46.434Z,2.27
2018-06-03T17:16:49.901Z,15.60
2018-06-03T17:18:53.512Z,4.80
2018-06-03T17:20:57.126Z,12.75
2018-06-03T17:23:00.620Z,2.50
2018-06-03T17:25:03.869Z,9.98
2018-06-03T17:27:07.485Z,5.85
2018-06-03T17:29:11.034Z,10.48
2018-06-03T17:31:14.572Z,6.72
2018-06-03T17:33:18.195Z,8.85
2018-06-03T17:35:24.027Z,5.25
2018-06-03T17:37:30.424Z,4.92
2018-06-03T17:39:34.943Z,2.67
2018-06-03T17:41:38.432Z,2.70
2018-06-03T17:43:41.947Z,2.52
2018-06-03T17:45:45.468Z,2.37
2018-06-03T17:47:48.970Z,2.33
2018-06-03T17:49:52.659Z,3.10
2018-06-03T17:51:56.147Z,2.42
2018-06-03T17:53:59.684Z,2.60
2018-06-03T17:56:03.191Z,2.92
2018-06-03T17:58:06.684Z,4.25
2018-06-03T18:00:10.272Z,7.35
2018-06-03T18:02:13.800Z,6.62
2018-06-03T18:04:17.367Z,3.55
2018-06-03T18:06:21.036Z,5.20
2018-06-03T18:08:24.580Z,4.22
2018-06-03T18:10:27.764Z,4.20
2018-06-03T18:12:31.281Z,3.37
2018-06-03T18:14:34.784Z,2.90
2018-06-03T18:16:38.325Z,3.10
2018-06-03T18:18:41.856Z,2.67
2018-06-03T18:20:45.424Z,2.50
2018-06-03T18:22:48.905Z,2.70
2018-06-03T18:24:52.423Z,2.70
2018-06-03T18:26:55.937Z,3.00
2018-06-03T18:28:59.420Z,2.70
2018-06-03T18:31:02.591Z,2.95
2018-06-03T18:33:06.159Z,2.33
2018-06-03T18:35:09.812Z,2.40
2018-06-03T18:37:13.325Z,2.33
2018-06-03T18:39:16.893Z,2.42
2018-06-03T18:41:20.420Z,2.70
2018-06-03T18:43:23.931Z,2.35
2018-06-03T18:45:27.459Z,2.47
2018-06-03T18:47:30.986Z,2.50
2018-06-03T18:49:34.200Z,2.70
2018-06-03T18:51:37.697Z,2.87
2018-06-03T18:53:41.256Z,3.10
2018-06-03T18:55:44.788Z,2.60
2018-06-03T18:57:48.348Z,2.70
2018-06-03T18:59:51.921Z,2.80
2018-06-03T19:01:55.436Z,2.70
2018-06-03T19:03:58.965Z,2.70
2018-06-03T19:06:02.496Z,3.30
2018-06-03T19:08:06.145Z,3.40
2018-06-03T19:10:09.696Z,2.80
2018-06-03T19:12:13.304Z,3.33
2018-06-03T19:14:16.831Z,2.97
2018-06-03T19:16:20.653Z,2.47
2018-06-03T19:18:24.146Z,3.20
2018-06-03T19:20:27.666Z,2.80
2018-06-03T19:22:31.139Z,2.63
2018-06-03T19:24:34.655Z,3.20
2018-06-03T19:26:38.227Z,3.37
2018-06-03T19:28:41.796Z,2.60
2018-06-03T19:30:45.392Z,2.97
2018-06-03T19:32:48.914Z,2.90
2018-06-03T19:34:52.484Z,2.90
2018-06-03T19:36:56.008Z,2.70
2018-06-03T19:38:59.583Z,2.90
2018-06-03T19:41:03.111Z,2.87
2018-06-03T19:43:06.636Z,3.47
2018-06-03T19:45:10.184Z,3.33
2018-06-03T19:47:13.697Z,3.33
2018-06-03T19:49:17.200Z,3.37
2018-06-03T19:51:20.748Z,3.30
2018-06-03T19:53:24.217Z,3.60
2018-06-03T19:55:27.867Z,3.80
2018-06-03T19:57:31.408Z,3.87
2018-06-03T19:59:34.943Z,4.67
2018-06-03T20:01:38.442Z,3.60
2018-06-03T20:03:42.106Z,4.30
2018-06-03T20:05:45.596Z,3.87
2018-06-03T20:07:49.138Z,3.80
2018-06-03T20:09:52.750Z,3.90
2018-06-03T20:14:31.403Z,3.87
2018-06-03T20:16:35.053Z,4.30
2018-06-03T20:18:38.655Z,4.33
2018-06-03T20:20:42.044Z,4.23
2018-06-03T20:22:45.676Z,3.80
2018-06-03T20:24:51.724Z,4.07
2018-06-03T20:26:55.401Z,4.30
2018-06-03T20:28:59.096Z,4.03
2018-06-03T20:31:02.883Z,4.83
2018-06-03T20:33:06.567Z,4.00
2018-06-03T20:35:10.151Z,3.87
2018-06-03T20:37:13.749Z,3.80
2018-06-03T20:39:17.347Z,4.40
2018-06-03T20:41:21.226Z,4.00
2018-06-03T20:43:24.931Z,3.97
2018-06-03T20:45:28.545Z,4.07
2018-06-03T20:47:31.792Z,4.00
2018-06-03T20:49:35.550Z,3.70
2018-06-03T20:51:39.155Z,4.10
2018-06-03T20:53:42.909Z,4.23
2018-06-03T20:55:46.673Z,4.20
2018-06-03T20:57:50.363Z,3.53
2018-06-03T20:59:53.998Z,3.73
2018-06-03T21:01:57.607Z,3.57
2018-06-03T21:04:02.726Z,3.67
2018-06-03T21:06:06.377Z,3.57
2018-06-03T21:08:10.075Z,3.30
2018-06-03T21:10:14.081Z,3.50
2018-06-03T21:12:17.803Z,4.30
2018-06-03T21:14:21.453Z,3.87
2018-06-03T21:16:25.160Z,4.07
2018-06-03T21:18:28.771Z,4.10
2018-06-03T21:20:32.025Z,4.43
2018-06-03T21:22:35.734Z,4.00
2018-06-03T21:24:39.343Z,4.70
2018-06-03T21:26:42.940Z,4.67
2018-06-03T21:28:46.661Z,4.13
2018-06-03T21:30:50.277Z,4.33
2018-06-03T21:32:53.965Z,4.50
2018-06-03T21:34:57.606Z,4.90
2018-06-03T21:37:01.377Z,4.73
2018-06-03T21:39:07.658Z,4.40
2018-06-03T21:41:11.308Z,4.67
2018-06-03T21:43:14.929Z,3.90
2018-06-03T21:45:18.661Z,4.10
2018-06-03T21:47:22.284Z,4.30
2018-06-03T21:49:25.851Z,4.23
2018-06-03T21:51:29.468Z,4.17
2018-06-03T21:53:33.132Z,4.77
2018-06-03T21:55:36.728Z,4.40
2018-06-03T21:57:40.397Z,4.10
2018-06-03T21:59:43.674Z,3.83
2018-06-03T22:01:47.402Z,4.10
2018-06-03T22:03:51.108Z,4.17
2018-06-03T22:05:54.774Z,3.90
2018-06-03T22:07:58.578Z,4.20
2018-06-03T22:10:02.273Z,4.03
2018-06-03T22:12:06.140Z,3.87
2018-06-03T22:14:09.932Z,3.40
2018-06-03T22:16:14.613Z,3.77
2018-06-03T22:18:18.287Z,3.67
2018-06-03T22:20:21.934Z,3.77
2018-06-03T22:22:25.521Z,4.20
2018-06-03T22:24:29.167Z,4.43
2018-06-03T22:26:32.777Z,4.60
2018-06-03T22:28:36.537Z,4.30
2018-06-03T22:30:40.226Z,4.50
2018-06-03T22:32:43.889Z,4.43
2018-06-03T22:34:47.583Z,4.50
2018-06-03T22:36:51.301Z,4.40
2018-06-03T22:38:54.949Z,4.73
2018-06-03T22:40:58.508Z,4.57
2018-06-03T22:43:02.244Z,4.40
2018-06-03T22:45:05.906Z,4.80
2018-06-03T22:47:09.698Z,5.17
2018-06-03T22:49:13.272Z,4.53
2018-06-03T22:51:16.973Z,4.97
2018-06-03T22:53:20.605Z,4.40
2018-06-03T22:55:24.248Z,4.80
2018-06-03T22:57:45.431Z,4.60
2018-06-03T22:59:49.096Z,4.60
2018-06-03T23:01:52.693Z,4.07
2018-06-03T23:03:56.330Z,4.33
2018-06-03T23:05:59.551Z,4.10
2018-06-03T23:08:03.293Z,3.77
2018-06-03T23:10:07.068Z,4.20
2018-06-03T23:12:10.708Z,4.50
2018-06-03T23:14:14.292Z,4.50
2018-06-03T23:16:17.859Z,4.33
2018-06-03T23:18:21.618Z,4.50
2018-06-03T23:20:25.276Z,4.57
2018-06-03T23:22:28.912Z,4.43
2018-06-03T23:24:32.534Z,4.43
2018-06-03T23:26:36.136Z,4.63
2018-06-03T23:28:39.756Z,4.73
2018-06-03T23:30:43.477Z,4.53
2018-06-03T23:32:47.095Z,4.97
2018-06-03T23:34:50.837Z,5.30
2018-06-03T23:36:54.445Z,5.00
2018-06-03T23:38:58.061Z,4.80
2018-06-03T23:41:01.616Z,5.50
2018-06-03T23:43:05.412Z,5.70
2018-06-03T23:45:08.630Z,4.83
2018-06-03T23:47:12.244Z,4.90
2018-06-03T23:49:15.922Z,5.30
2018-06-03T23:51:19.467Z,4.73
2018-06-03T23:53:23.133Z,5.33
2018-06-03T23:55:26.691Z,5.00
2018-06-03T23:57:30.416Z,4.73
2018-06-03T23:59:34.069Z,4.67
